sensor_id;sensor_type;location;lat;lon;timestamp;P1;durP1;ratioP1;P2;durP2;ratioP2
54977;SDS011;40873;47.522;19.106;2023-04-03T00:00:42;8.48;;;4.03;;
54977;SDS011;40873;47.522;19.106;2023-04-03T00:03:16;7.10;;;3.58;;
54977;SDS011;40873;47.522;19.106;2023-04-03T00:05:44;7.38;;;4.18;;
54977;SDS011;40873;47.522;19.106;2023-04-03T00:08:13;8.30;;;3.53;;
54977;SDS011;40873;47.522;19.106;2023-04-03T00:10:40;8.30;;;4.30;;
54977;SDS011;40873;47.522;19.106;2023-04-03T00:13:07;6.07;;;3.78;;
54977;SDS011;40873;47.522;19.106;2023-04-03T00:15:35;9.10;;;4.05;;
54977;SDS011;40873;47.522;19.106;2023-04-03T00:18:04;8.10;;;3.70;;
54977;SDS011;40873;47.522;19.106;2023-04-03T00:20:31;8.18;;;4.93;;
54977;SDS011;40873;47.522;19.106;2023-04-03T00:22:58;7.75;;;3.38;;
54977;SDS011;40873;47.522;19.106;2023-04-03T00:25:26;8.25;;;4.13;;
54977;SDS011;40873;47.522;19.106;2023-04-03T00:27:53;9.93;;;4.28;;
54977;SDS011;40873;47.522;19.106;2023-04-03T00:30:20;7.68;;;3.85;;
54977;SDS011;40873;47.522;19.106;2023-04-03T00:32:50;7.90;;;4.20;;
54977;SDS011;40873;47.522;19.106;2023-04-03T00:35:19;8.20;;;3.95;;
54977;SDS011;40873;47.522;19.106;2023-04-03T00:37:48;6.35;;;3.67;;
54977;SDS011;40873;47.522;19.106;2023-04-03T00:40:19;9.45;;;4.18;;
54977;SDS011;40873;47.522;19.106;2023-04-03T00:42:48;8.05;;;4.03;;
54977;SDS011;40873;47.522;19.106;2023-04-03T00:47:51;7.93;;;3.42;;
54977;SDS011;40873;47.522;19.106;2023-04-03T00:50:18;7.72;;;3.97;;
54977;SDS011;40873;47.522;19.106;2023-04-03T00:52:46;7.68;;;4.13;;
54977;SDS011;40873;47.522;19.106;2023-04-03T00:55:15;6.85;;;3.67;;
54977;SDS011;40873;47.522;19.106;2023-04-03T00:57:43;6.72;;;4.00;;
54977;SDS011;40873;47.522;19.106;2023-04-03T01:00:13;7.07;;;3.67;;
54977;SDS011;40873;47.522;19.106;2023-04-03T01:02:43;9.82;;;3.85;;
54977;SDS011;40873;47.522;19.106;2023-04-03T01:05:11;5.93;;;3.60;;
54977;SDS011;40873;47.522;19.106;2023-04-03T01:07:39;8.20;;;3.83;;
54977;SDS011;40873;47.522;19.106;2023-04-03T01:10:08;6.65;;;3.30;;
54977;SDS011;40873;47.522;19.106;2023-04-03T01:12:38;7.72;;;3.72;;
54977;SDS011;40873;47.522;19.106;2023-04-03T01:15:14;5.97;;;2.90;;
54977;SDS011;40873;47.522;19.106;2023-04-03T01:17:50;6.53;;;3.03;;
54977;SDS011;40873;47.522;19.106;2023-04-03T01:20:35;5.80;;;2.85;;
54977;SDS011;40873;47.522;19.106;2023-04-03T01:23:25;7.43;;;4.03;;
54977;SDS011;40873;47.522;19.106;2023-04-03T01:25:56;4.50;;;3.13;;
54977;SDS011;40873;47.522;19.106;2023-04-03T01:30:55;5.45;;;3.17;;
54977;SDS011;40873;47.522;19.106;2023-04-03T01:33:29;5.97;;;3.42;;
54977;SDS011;40873;47.522;19.106;2023-04-03T01:35:56;6.35;;;3.03;;
54977;SDS011;40873;47.522;19.106;2023-04-03T01:38:24;6.72;;;3.30;;
54977;SDS011;40873;47.522;19.106;2023-04-03T01:40:50;6.82;;;3.42;;
54977;SDS011;40873;47.522;19.106;2023-04-03T01:43:17;4.60;;;2.42;;
54977;SDS011;40873;47.522;19.106;2023-04-03T01:45:44;5.00;;;3.25;;
54977;SDS011;40873;47.522;19.106;2023-04-03T01:48:13;4.47;;;2.55;;
54977;SDS011;40873;47.522;19.106;2023-04-03T01:50:40;7.00;;;3.20;;
54977;SDS011;40873;47.522;19.106;2023-04-03T01:53:07;6.22;;;3.03;;
54977;SDS011;40873;47.522;19.106;2023-04-03T01:55:34;5.63;;;3.58;;
54977;SDS011;40873;47.522;19.106;2023-04-03T01:58:01;5.93;;;2.88;;
54977;SDS011;40873;47.522;19.106;2023-04-03T02:00:28;5.20;;;2.58;;
54977;SDS011;40873;47.522;19.106;2023-04-03T02:02:55;4.68;;;2.60;;
54977;SDS011;40873;47.522;19.106;2023-04-03T02:05:23;6.38;;;3.25;;
54977;SDS011;40873;47.522;19.106;2023-04-03T02:07:50;5.18;;;2.65;;
54977;SDS011;40873;47.522;19.106;2023-04-03T02:10:17;5.30;;;2.78;;
54977;SDS011;40873;47.522;19.106;2023-04-03T02:12:44;3.97;;;2.40;;
54977;SDS011;40873;47.522;19.106;2023-04-03T02:15:11;4.75;;;2.35;;
54977;SDS011;40873;47.522;19.106;2023-04-03T02:17:38;6.50;;;3.33;;
54977;SDS011;40873;47.522;19.106;2023-04-03T02:20:05;6.35;;;2.45;;
54977;SDS011;40873;47.522;19.106;2023-04-03T02:22:33;7.35;;;2.33;;
54977;SDS011;40873;47.522;19.106;2023-04-03T02:25:00;4.72;;;2.17;;
54977;SDS011;40873;47.522;19.106;2023-04-03T02:27:27;5.22;;;3.05;;
54977;SDS011;40873;47.522;19.106;2023-04-03T02:29:54;5.30;;;2.90;;
54977;SDS011;40873;47.522;19.106;2023-04-03T02:32:21;5.32;;;2.78;;
54977;SDS011;40873;47.522;19.106;2023-04-03T02:34:48;6.50;;;2.70;;
54977;SDS011;40873;47.522;19.106;2023-04-03T02:37:15;5.70;;;2.88;;
54977;SDS011;40873;47.522;19.106;2023-04-03T02:39:42;4.38;;;2.40;;
54977;SDS011;40873;47.522;19.106;2023-04-03T02:42:09;5.30;;;2.28;;
54977;SDS011;40873;47.522;19.106;2023-04-03T02:44:36;4.60;;;2.45;;
54977;SDS011;40873;47.522;19.106;2023-04-03T02:47:03;4.88;;;2.88;;
54977;SDS011;40873;47.522;19.106;2023-04-03T02:49:30;5.90;;;2.60;;
54977;SDS011;40873;47.522;19.106;2023-04-03T02:51:58;6.38;;;2.90;;
54977;SDS011;40873;47.522;19.106;2023-04-03T02:54:25;6.80;;;2.45;;
54977;SDS011;40873;47.522;19.106;2023-04-03T02:56:55;4.43;;;2.33;;
54977;SDS011;40873;47.522;19.106;2023-04-03T02:59:22;5.47;;;2.40;;
54977;SDS011;40873;47.522;19.106;2023-04-03T03:01:49;3.58;;;2.30;;
54977;SDS011;40873;47.522;19.106;2023-04-03T03:04:16;6.28;;;2.58;;
54977;SDS011;40873;47.522;19.106;2023-04-03T03:06:43;5.40;;;2.70;;
54977;SDS011;40873;47.522;19.106;2023-04-03T03:09:10;6.85;;;3.15;;
54977;SDS011;40873;47.522;19.106;2023-04-03T03:11:37;5.15;;;2.47;;
54977;SDS011;40873;47.522;19.106;2023-04-03T03:14:04;4.95;;;2.40;;
54977;SDS011;40873;47.522;19.106;2023-04-03T03:16:31;5.90;;;3.05;;
54977;SDS011;40873;47.522;19.106;2023-04-03T03:18:58;6.55;;;2.90;;
54977;SDS011;40873;47.522;19.106;2023-04-03T03:21:26;3.90;;;2.30;;
54977;SDS011;40873;47.522;19.106;2023-04-03T03:23:53;6.03;;;2.53;;
54977;SDS011;40873;47.522;19.106;2023-04-03T03:26:20;3.58;;;1.67;;
54977;SDS011;40873;47.522;19.106;2023-04-03T03:28:47;6.03;;;2.58;;
54977;SDS011;40873;47.522;19.106;2023-04-03T03:31:14;4.85;;;2.67;;
54977;SDS011;40873;47.522;19.106;2023-04-03T03:33:41;6.05;;;2.92;;
54977;SDS011;40873;47.522;19.106;2023-04-03T03:36:08;5.55;;;3.00;;
54977;SDS011;40873;47.522;19.106;2023-04-03T03:38:36;4.95;;;2.50;;
54977;SDS011;40873;47.522;19.106;2023-04-03T03:41:03;5.25;;;2.75;;
54977;SDS011;40873;47.522;19.106;2023-04-03T03:43:30;5.15;;;2.42;;
54977;SDS011;40873;47.522;19.106;2023-04-03T03:45:57;6.53;;;2.42;;
54977;SDS011;40873;47.522;19.106;2023-04-03T03:48:24;6.03;;;2.67;;
54977;SDS011;40873;47.522;19.106;2023-04-03T03:50:51;5.25;;;2.78;;
54977;SDS011;40873;47.522;19.106;2023-04-03T03:53:18;5.63;;;2.92;;
54977;SDS011;40873;47.522;19.106;2023-04-03T03:55:45;6.80;;;2.72;;
54977;SDS011;40873;47.522;19.106;2023-04-03T03:58:12;4.53;;;3.03;;
54977;SDS011;40873;47.522;19.106;2023-04-03T04:00:39;5.97;;;3.30;;
54977;SDS011;40873;47.522;19.106;2023-04-03T04:03:06;6.35;;;2.97;;
54977;SDS011;40873;47.522;19.106;2023-04-03T04:05:33;6.00;;;3.13;;
54977;SDS011;40873;47.522;19.106;2023-04-03T04:08:01;7.22;;;3.35;;
54977;SDS011;40873;47.522;19.106;2023-04-03T04:10:28;5.57;;;2.92;;
54977;SDS011;40873;47.522;19.106;2023-04-03T04:12:55;6.43;;;2.78;;
54977;SDS011;40873;47.522;19.106;2023-04-03T04:15:24;7.32;;;3.15;;
54977;SDS011;40873;47.522;19.106;2023-04-03T04:17:52;6.93;;;3.70;;
54977;SDS011;40873;47.522;19.106;2023-04-03T04:20:20;8.00;;;3.67;;
54977;SDS011;40873;47.522;19.106;2023-04-03T04:22:47;7.82;;;3.40;;
54977;SDS011;40873;47.522;19.106;2023-04-03T04:25:14;5.55;;;3.25;;
54977;SDS011;40873;47.522;19.106;2023-04-03T04:27:41;7.07;;;3.72;;
54977;SDS011;40873;47.522;19.106;2023-04-03T04:30:08;6.93;;;3.28;;
54977;SDS011;40873;47.522;19.106;2023-04-03T04:32:37;6.55;;;2.55;;
54977;SDS011;40873;47.522;19.106;2023-04-03T04:35:04;6.75;;;3.58;;
54977;SDS011;40873;47.522;19.106;2023-04-03T04:37:32;7.95;;;3.92;;
54977;SDS011;40873;47.522;19.106;2023-04-03T04:39:59;7.75;;;3.63;;
54977;SDS011;40873;47.522;19.106;2023-04-03T04:42:26;9.40;;;3.80;;
54977;SDS011;40873;47.522;19.106;2023-04-03T04:44:53;7.30;;;3.15;;
54977;SDS011;40873;47.522;19.106;2023-04-03T04:47:20;5.43;;;3.13;;
54977;SDS011;40873;47.522;19.106;2023-04-03T04:49:47;6.05;;;3.08;;
54977;SDS011;40873;47.522;19.106;2023-04-03T04:52:14;6.97;;;3.83;;
54977;SDS011;40873;47.522;19.106;2023-04-03T04:54:41;5.85;;;3.17;;
54977;SDS011;40873;47.522;19.106;2023-04-03T04:57:08;7.15;;;3.17;;
54977;SDS011;40873;47.522;19.106;2023-04-03T04:59:35;5.80;;;3.42;;
54977;SDS011;40873;47.522;19.106;2023-04-03T05:02:02;5.72;;;2.92;;
54977;SDS011;40873;47.522;19.106;2023-04-03T05:04:29;8.98;;;3.88;;
54977;SDS011;40873;47.522;19.106;2023-04-03T05:06:56;11.95;;;3.88;;
54977;SDS011;40873;47.522;19.106;2023-04-03T05:09:23;7.03;;;3.65;;
54977;SDS011;40873;47.522;19.106;2023-04-03T05:11:50;7.93;;;3.58;;
54977;SDS011;40873;47.522;19.106;2023-04-03T05:14:20;9.48;;;4.05;;
54977;SDS011;40873;47.522;19.106;2023-04-03T05:16:46;6.15;;;3.70;;
54977;SDS011;40873;47.522;19.106;2023-04-03T05:19:17;6.43;;;3.75;;
54977;SDS011;40873;47.522;19.106;2023-04-03T05:21:43;9.93;;;3.95;;
54977;SDS011;40873;47.522;19.106;2023-04-03T05:24:10;8.25;;;3.45;;
54977;SDS011;40873;47.522;19.106;2023-04-03T05:26:37;7.15;;;3.53;;
54977;SDS011;40873;47.522;19.106;2023-04-03T05:29:05;6.07;;;3.15;;
54977;SDS011;40873;47.522;19.106;2023-04-03T05:31:32;4.60;;;2.95;;
54977;SDS011;40873;47.522;19.106;2023-04-03T05:33:59;7.50;;;3.60;;
54977;SDS011;40873;47.522;19.106;2023-04-03T05:36:26;6.55;;;3.10;;
54977;SDS011;40873;47.522;19.106;2023-04-03T05:38:53;6.93;;;3.15;;
54977;SDS011;40873;47.522;19.106;2023-04-03T05:41:23;9.30;;;3.45;;
54977;SDS011;40873;47.522;19.106;2023-04-03T05:43:50;8.50;;;3.38;;
54977;SDS011;40873;47.522;19.106;2023-04-03T05:46:17;7.45;;;3.38;;
54977;SDS011;40873;47.522;19.106;2023-04-03T05:48:47;7.63;;;3.13;;
54977;SDS011;40873;47.522;19.106;2023-04-03T05:51:24;8.70;;;3.65;;
54977;SDS011;40873;47.522;19.106;2023-04-03T05:53:56;9.00;;;3.60;;
54977;SDS011;40873;47.522;19.106;2023-04-03T05:56:32;7.43;;;3.60;;
54977;SDS011;40873;47.522;19.106;2023-04-03T05:58:59;5.78;;;3.20;;
54977;SDS011;40873;47.522;19.106;2023-04-03T06:01:26;5.93;;;3.13;;
54977;SDS011;40873;47.522;19.106;2023-04-03T06:03:53;9.02;;;4.00;;
54977;SDS011;40873;47.522;19.106;2023-04-03T06:06:21;6.70;;;3.72;;
54977;SDS011;40873;47.522;19.106;2023-04-03T06:08:48;6.45;;;2.88;;
54977;SDS011;40873;47.522;19.106;2023-04-03T06:11:15;8.30;;;3.53;;
54977;SDS011;40873;47.522;19.106;2023-04-03T06:13:43;6.40;;;2.90;;
54977;SDS011;40873;47.522;19.106;2023-04-03T06:16:12;12.27;;;3.72;;
54977;SDS011;40873;47.522;19.106;2023-04-03T06:18:42;6.65;;;2.65;;
54977;SDS011;40873;47.522;19.106;2023-04-03T06:21:08;6.50;;;3.22;;
54977;SDS011;40873;47.522;19.106;2023-04-03T06:23:36;4.95;;;2.80;;
54977;SDS011;40873;47.522;19.106;2023-04-03T06:26:03;5.43;;;2.88;;
54977;SDS011;40873;47.522;19.106;2023-04-03T06:28:30;8.65;;;3.30;;
54977;SDS011;40873;47.522;19.106;2023-04-03T06:30:56;6.18;;;3.03;;
54977;SDS011;40873;47.522;19.106;2023-04-03T06:33:23;6.22;;;3.47;;
54977;SDS011;40873;47.522;19.106;2023-04-03T06:35:55;7.25;;;3.40;;
54977;SDS011;40873;47.522;19.106;2023-04-03T06:40:51;6.43;;;3.17;;
54977;SDS011;40873;47.522;19.106;2023-04-03T06:43:18;6.55;;;3.20;;
54977;SDS011;40873;47.522;19.106;2023-04-03T06:45:45;7.05;;;3.35;;
54977;SDS011;40873;47.522;19.106;2023-04-03T06:48:13;9.48;;;2.95;;
54977;SDS011;40873;47.522;19.106;2023-04-03T06:50:40;6.10;;;2.70;;
54977;SDS011;40873;47.522;19.106;2023-04-03T06:53:08;6.00;;;2.40;;
54977;SDS011;40873;47.522;19.106;2023-04-03T06:55:35;5.95;;;2.30;;
54977;SDS011;40873;47.522;19.106;2023-04-03T06:58:03;5.82;;;2.42;;
54977;SDS011;40873;47.522;19.106;2023-04-03T07:00:30;5.15;;;1.73;;
54977;SDS011;40873;47.522;19.106;2023-04-03T07:02:57;3.90;;;1.92;;
54977;SDS011;40873;47.522;19.106;2023-04-03T07:05:25;4.18;;;1.58;;
54977;SDS011;40873;47.522;19.106;2023-04-03T07:07:52;5.15;;;2.03;;
54977;SDS011;40873;47.522;19.106;2023-04-03T07:10:19;3.67;;;1.83;;
54977;SDS011;40873;47.522;19.106;2023-04-03T07:12:47;7.05;;;2.08;;
54977;SDS011;40873;47.522;19.106;2023-04-03T07:15:14;2.67;;;1.40;;
54977;SDS011;40873;47.522;19.106;2023-04-03T07:17:41;4.30;;;1.83;;
54977;SDS011;40873;47.522;19.106;2023-04-03T07:20:08;6.72;;;1.92;;
54977;SDS011;40873;47.522;19.106;2023-04-03T07:22:39;4.15;;;2.38;;
54977;SDS011;40873;47.522;19.106;2023-04-03T07:25:06;4.38;;;2.00;;
54977;SDS011;40873;47.522;19.106;2023-04-03T07:27:33;3.25;;;1.67;;
54977;SDS011;40873;47.522;19.106;2023-04-03T07:30:00;4.80;;;2.10;;
54977;SDS011;40873;47.522;19.106;2023-04-03T07:32:30;3.65;;;1.58;;
54977;SDS011;40873;47.522;19.106;2023-04-03T07:34:57;4.40;;;2.35;;
54977;SDS011;40873;47.522;19.106;2023-04-03T07:37:24;4.05;;;2.30;;
54977;SDS011;40873;47.522;19.106;2023-04-03T07:39:51;5.47;;;2.05;;
54977;SDS011;40873;47.522;19.106;2023-04-03T07:42:18;4.25;;;1.70;;
54977;SDS011;40873;47.522;19.106;2023-04-03T07:44:45;3.95;;;1.58;;
54977;SDS011;40873;47.522;19.106;2023-04-03T07:47:13;2.58;;;1.38;;
54977;SDS011;40873;47.522;19.106;2023-04-03T07:49:42;2.33;;;1.23;;
54977;SDS011;40873;47.522;19.106;2023-04-03T07:52:10;1.90;;;1.10;;
54977;SDS011;40873;47.522;19.106;2023-04-03T07:54:37;2.58;;;1.42;;
54977;SDS011;40873;47.522;19.106;2023-04-03T07:57:04;2.22;;;1.10;;
54977;SDS011;40873;47.522;19.106;2023-04-03T07:59:31;3.72;;;1.50;;
54977;SDS011;40873;47.522;19.106;2023-04-03T08:01:58;5.50;;;1.38;;
54977;SDS011;40873;47.522;19.106;2023-04-03T08:04:25;5.53;;;1.67;;
54977;SDS011;40873;47.522;19.106;2023-04-03T08:06:52;3.67;;;1.73;;
54977;SDS011;40873;47.522;19.106;2023-04-03T08:09:19;3.25;;;1.77;;
54977;SDS011;40873;47.522;19.106;2023-04-03T08:11:46;4.20;;;1.67;;
54977;SDS011;40873;47.522;19.106;2023-04-03T08:14:13;5.20;;;1.88;;
54977;SDS011;40873;47.522;19.106;2023-04-03T08:16:46;2.90;;;1.52;;
54977;SDS011;40873;47.522;19.106;2023-04-03T08:19:14;3.50;;;1.50;;
54977;SDS011;40873;47.522;19.106;2023-04-03T08:21:55;6.97;;;1.55;;
54977;SDS011;40873;47.522;19.106;2023-04-03T08:24:24;4.28;;;1.45;;
54977;SDS011;40873;47.522;19.106;2023-04-03T08:26:51;3.72;;;1.70;;
54977;SDS011;40873;47.522;19.106;2023-04-03T08:29:18;4.15;;;1.77;;
54977;SDS011;40873;47.522;19.106;2023-04-03T08:31:46;4.50;;;2.03;;
54977;SDS011;40873;47.522;19.106;2023-04-03T08:34:13;2.97;;;1.40;;
54977;SDS011;40873;47.522;19.106;2023-04-03T08:36:41;3.92;;;1.60;;
54977;SDS011;40873;47.522;19.106;2023-04-03T08:39:09;1.90;;;1.05;;
54977;SDS011;40873;47.522;19.106;2023-04-03T08:41:43;2.47;;;1.10;;
54977;SDS011;40873;47.522;19.106;2023-04-03T08:44:28;3.08;;;1.42;;
54977;SDS011;40873;47.522;19.106;2023-04-03T08:50:15;2.72;;;1.55;;
54977;SDS011;40873;47.522;19.106;2023-04-03T08:52:48;2.83;;;1.30;;
54977;SDS011;40873;47.522;19.106;2023-04-03T08:55:23;3.70;;;1.70;;
54977;SDS011;40873;47.522;19.106;2023-04-03T08:57:53;3.95;;;1.20;;
54977;SDS011;40873;47.522;19.106;2023-04-03T09:00:28;3.30;;;1.67;;
54977;SDS011;40873;47.522;19.106;2023-04-03T09:03:01;3.60;;;2.00;;
54977;SDS011;40873;47.522;19.106;2023-04-03T09:08:04;3.65;;;1.67;;
54977;SDS011;40873;47.522;19.106;2023-04-03T09:10:33;2.83;;;1.08;;
54977;SDS011;40873;47.522;19.106;2023-04-03T09:15:46;4.70;;;1.20;;
54977;SDS011;40873;47.522;19.106;2023-04-03T09:18:18;4.18;;;1.20;;
54977;SDS011;40873;47.522;19.106;2023-04-03T09:23:34;2.90;;;1.40;;
54977;SDS011;40873;47.522;19.106;2023-04-03T09:29:14;2.85;;;1.23;;
54977;SDS011;40873;47.522;19.106;2023-04-03T09:31:46;2.67;;;1.75;;
54977;SDS011;40873;47.522;19.106;2023-04-03T09:34:18;2.78;;;1.27;;
54977;SDS011;40873;47.522;19.106;2023-04-03T09:36:51;2.38;;;1.30;;
54977;SDS011;40873;47.522;19.106;2023-04-03T09:39:21;1.63;;;0.80;;
54977;SDS011;40873;47.522;19.106;2023-04-03T09:42:04;2.20;;;1.13;;
54977;SDS011;40873;47.522;19.106;2023-04-03T09:44:53;2.53;;;1.20;;
54977;SDS011;40873;47.522;19.106;2023-04-03T09:47:24;1.67;;;1.17;;
54977;SDS011;40873;47.522;19.106;2023-04-03T09:52:41;2.50;;;1.20;;
54977;SDS011;40873;47.522;19.106;2023-04-03T09:55:14;3.20;;;1.40;;
54977;SDS011;40873;47.522;19.106;2023-04-03T09:57:48;2.08;;;0.95;;
54977;SDS011;40873;47.522;19.106;2023-04-03T10:02:55;1.63;;;0.70;;
54977;SDS011;40873;47.522;19.106;2023-04-03T10:10:43;3.83;;;1.48;;
54977;SDS011;40873;47.522;19.106;2023-04-03T10:13:16;2.10;;;0.80;;
54977;SDS011;40873;47.522;19.106;2023-04-03T10:15:50;1.40;;;0.75;;
54977;SDS011;40873;47.522;19.106;2023-04-03T10:21:15;2.00;;;1.25;;
54977;SDS011;40873;47.522;19.106;2023-04-03T10:32:24;2.80;;;1.20;;
54977;SDS011;40873;47.522;19.106;2023-04-03T10:40:24;1.30;;;0.73;;
54977;SDS011;40873;47.522;19.106;2023-04-03T10:46:17;1.33;;;0.60;;
54977;SDS011;40873;47.522;19.106;2023-04-03T10:51:37;1.88;;;0.80;;
54977;SDS011;40873;47.522;19.106;2023-04-03T10:54:19;1.50;;;0.70;;
54977;SDS011;40873;47.522;19.106;2023-04-03T10:56:51;1.58;;;0.75;;
54977;SDS011;40873;47.522;19.106;2023-04-03T10:59:50;3.67;;;0.60;;
54977;SDS011;40873;47.522;19.106;2023-04-03T11:05:03;1.20;;;0.57;;
54977;SDS011;40873;47.522;19.106;2023-04-03T11:07:39;0.85;;;0.40;;
54977;SDS011;40873;47.522;19.106;2023-04-03T11:13:17;1.13;;;0.67;;
54977;SDS011;40873;47.522;19.106;2023-04-03T11:15:49;1.42;;;0.77;;
54977;SDS011;40873;47.522;19.106;2023-04-03T11:18:21;1.98;;;0.75;;
54977;SDS011;40873;47.522;19.106;2023-04-03T11:20:57;1.42;;;0.93;;
54977;SDS011;40873;47.522;19.106;2023-04-03T11:23:32;1.48;;;0.88;;
54977;SDS011;40873;47.522;19.106;2023-04-03T11:26:15;2.05;;;0.70;;
54977;SDS011;40873;47.522;19.106;2023-04-03T11:28:45;1.83;;;0.60;;
54977;SDS011;40873;47.522;19.106;2023-04-03T11:31:23;0.98;;;0.50;;
54977;SDS011;40873;47.522;19.106;2023-04-03T11:36:46;2.20;;;0.82;;
54977;SDS011;40873;47.522;19.106;2023-04-03T11:39:24;1.60;;;0.73;;
54977;SDS011;40873;47.522;19.106;2023-04-03T11:41:55;1.52;;;0.77;;
54977;SDS011;40873;47.522;19.106;2023-04-03T11:44:38;2.55;;;0.80;;
54977;SDS011;40873;47.522;19.106;2023-04-03T11:47:06;2.15;;;0.70;;
54977;SDS011;40873;47.522;19.106;2023-04-03T12:13:42;1.05;;;0.50;;
54977;SDS011;40873;47.522;19.106;2023-04-03T12:16:41;2.95;;;0.70;;
54977;SDS011;40873;47.522;19.106;2023-04-03T12:24:24;1.52;;;0.60;;
54977;SDS011;40873;47.522;19.106;2023-04-03T12:40:39;1.48;;;0.60;;
54977;SDS011;40873;47.522;19.106;2023-04-03T12:46:15;0.82;;;0.57;;
54977;SDS011;40873;47.522;19.106;2023-04-03T12:51:19;2.55;;;0.95;;
54977;SDS011;40873;47.522;19.106;2023-04-03T12:53:47;6.15;;;2.15;;
54977;SDS011;40873;47.522;19.106;2023-04-03T12:56:22;0.95;;;0.50;;
54977;SDS011;40873;47.522;19.106;2023-04-03T12:58:53;2.78;;;0.60;;
54977;SDS011;40873;47.522;19.106;2023-04-03T13:01:24;5.30;;;1.02;;
54977;SDS011;40873;47.522;19.106;2023-04-03T13:03:53;1.58;;;0.90;;
54977;SDS011;40873;47.522;19.106;2023-04-03T13:06:23;1.67;;;0.88;;
54977;SDS011;40873;47.522;19.106;2023-04-03T13:08:54;1.88;;;0.80;;
54977;SDS011;40873;47.522;19.106;2023-04-03T13:11:24;3.25;;;0.55;;
54977;SDS011;40873;47.522;19.106;2023-04-03T13:14:00;1.55;;;0.50;;
54977;SDS011;40873;47.522;19.106;2023-04-03T13:17:10;1.45;;;0.63;;
54977;SDS011;40873;47.522;19.106;2023-04-03T13:19:42;1.52;;;0.50;;
54977;SDS011;40873;47.522;19.106;2023-04-03T13:22:31;1.10;;;0.57;;
54977;SDS011;40873;47.522;19.106;2023-04-03T13:25:06;1.17;;;0.65;;
54977;SDS011;40873;47.522;19.106;2023-04-03T13:27:38;1.55;;;0.68;;
54977;SDS011;40873;47.522;19.106;2023-04-03T13:30:06;0.77;;;0.55;;
54977;SDS011;40873;47.522;19.106;2023-04-03T13:32:45;1.48;;;0.57;;
54977;SDS011;40873;47.522;19.106;2023-04-03T13:38:04;2.13;;;0.70;;
54977;SDS011;40873;47.522;19.106;2023-04-03T13:40:53;1.73;;;0.90;;
54977;SDS011;40873;47.522;19.106;2023-04-03T13:43:30;1.73;;;0.60;;
54977;SDS011;40873;47.522;19.106;2023-04-03T13:48:39;1.00;;;0.50;;
54977;SDS011;40873;47.522;19.106;2023-04-03T13:53:43;1.95;;;0.65;;
54977;SDS011;40873;47.522;19.106;2023-04-03T14:01:53;1.33;;;0.80;;
54977;SDS011;40873;47.522;19.106;2023-04-03T14:07:16;4.05;;;1.13;;
54977;SDS011;40873;47.522;19.106;2023-04-03T14:09:44;1.65;;;0.73;;
54977;SDS011;40873;47.522;19.106;2023-04-03T14:12:54;1.67;;;0.73;;
54977;SDS011;40873;47.522;19.106;2023-04-03T14:15:27;1.77;;;0.73;;
54977;SDS011;40873;47.522;19.106;2023-04-03T14:17:52;1.77;;;0.75;;
54977;SDS011;40873;47.522;19.106;2023-04-03T14:20:21;2.15;;;0.65;;
54977;SDS011;40873;47.522;19.106;2023-04-03T14:22:50;2.10;;;0.57;;
54977;SDS011;40873;47.522;19.106;2023-04-03T14:25:18;1.60;;;0.77;;
54977;SDS011;40873;47.522;19.106;2023-04-03T14:27:47;1.17;;;0.80;;
54977;SDS011;40873;47.522;19.106;2023-04-03T14:30:18;1.50;;;0.80;;
54977;SDS011;40873;47.522;19.106;2023-04-03T14:32:52;1.42;;;0.60;;
54977;SDS011;40873;47.522;19.106;2023-04-03T14:35:20;2.90;;;0.60;;
54977;SDS011;40873;47.522;19.106;2023-04-03T14:37:48;1.88;;;1.30;;
54977;SDS011;40873;47.522;19.106;2023-04-03T14:40:17;1.40;;;0.60;;
54977;SDS011;40873;47.522;19.106;2023-04-03T14:42:47;1.88;;;0.70;;
54977;SDS011;40873;47.522;19.106;2023-04-03T14:45:15;2.67;;;0.70;;
54977;SDS011;40873;47.522;19.106;2023-04-03T14:47:47;2.38;;;0.80;;
54977;SDS011;40873;47.522;19.106;2023-04-03T14:50:20;1.85;;;0.82;;
54977;SDS011;40873;47.522;19.106;2023-04-03T14:52:50;6.75;;;0.60;;
54977;SDS011;40873;47.522;19.106;2023-04-03T14:55:21;1.67;;;0.82;;
54977;SDS011;40873;47.522;19.106;2023-04-03T14:57:49;1.88;;;0.82;;
54977;SDS011;40873;47.522;19.106;2023-04-03T15:00:17;1.85;;;0.70;;
54977;SDS011;40873;47.522;19.106;2023-04-03T15:02:47;2.13;;;1.00;;
54977;SDS011;40873;47.522;19.106;2023-04-03T15:05:15;2.67;;;1.40;;
54977;SDS011;40873;47.522;19.106;2023-04-03T15:07:49;2.20;;;0.93;;
54977;SDS011;40873;47.522;19.106;2023-04-03T15:10:21;1.23;;;0.60;;
54977;SDS011;40873;47.522;19.106;2023-04-03T15:12:53;1.67;;;0.90;;
54977;SDS011;40873;47.522;19.106;2023-04-03T15:15:21;1.70;;;0.70;;
54977;SDS011;40873;47.522;19.106;2023-04-03T15:17:53;1.50;;;0.82;;
54977;SDS011;40873;47.522;19.106;2023-04-03T15:20:27;2.17;;;0.90;;
54977;SDS011;40873;47.522;19.106;2023-04-03T15:23:00;1.90;;;0.80;;
54977;SDS011;40873;47.522;19.106;2023-04-03T15:25:28;1.00;;;0.68;;
54977;SDS011;40873;47.522;19.106;2023-04-03T15:27:58;1.63;;;0.80;;
54977;SDS011;40873;47.522;19.106;2023-04-03T15:30:26;1.63;;;0.90;;
54977;SDS011;40873;47.522;19.106;2023-04-03T15:32:53;3.22;;;0.82;;
54977;SDS011;40873;47.522;19.106;2023-04-03T15:35:20;2.90;;;0.73;;
54977;SDS011;40873;47.522;19.106;2023-04-03T15:37:47;3.20;;;1.33;;
54977;SDS011;40873;47.522;19.106;2023-04-03T15:40:15;1.88;;;1.02;;
54977;SDS011;40873;47.522;19.106;2023-04-03T15:42:42;3.33;;;1.00;;
54977;SDS011;40873;47.522;19.106;2023-04-03T15:45:09;3.53;;;1.58;;
54977;SDS011;40873;47.522;19.106;2023-04-03T15:47:36;4.00;;;1.52;;
54977;SDS011;40873;47.522;19.106;2023-04-03T15:50:03;2.72;;;1.40;;
54977;SDS011;40873;47.522;19.106;2023-04-03T15:52:33;2.40;;;1.20;;
54977;SDS011;40873;47.522;19.106;2023-04-03T15:55:02;5.00;;;1.67;;
54977;SDS011;40873;47.522;19.106;2023-04-03T15:57:29;2.65;;;1.50;;
54977;SDS011;40873;47.522;19.106;2023-04-03T16:00:01;2.83;;;1.50;;
54977;SDS011;40873;47.522;19.106;2023-04-03T16:02:29;6.97;;;1.92;;
54977;SDS011;40873;47.522;19.106;2023-04-03T16:04:56;6.32;;;2.00;;
54977;SDS011;40873;47.522;19.106;2023-04-03T16:07:23;2.10;;;1.30;;
54977;SDS011;40873;47.522;19.106;2023-04-03T16:09:50;2.88;;;1.10;;
54977;SDS011;40873;47.522;19.106;2023-04-03T16:12:18;2.60;;;1.20;;
54977;SDS011;40873;47.522;19.106;2023-04-03T16:14:45;2.15;;;0.77;;
54977;SDS011;40873;47.522;19.106;2023-04-03T16:17:12;1.90;;;0.80;;
54977;SDS011;40873;47.522;19.106;2023-04-03T16:19:39;1.00;;;0.82;;
54977;SDS011;40873;47.522;19.106;2023-04-03T16:22:06;1.80;;;0.90;;
54977;SDS011;40873;47.522;19.106;2023-04-03T16:24:34;1.27;;;0.55;;
54977;SDS011;40873;47.522;19.106;2023-04-03T16:27:02;2.47;;;1.02;;
54977;SDS011;40873;47.522;19.106;2023-04-03T16:29:29;2.25;;;1.00;;
54977;SDS011;40873;47.522;19.106;2023-04-03T16:31:56;2.40;;;1.02;;
54977;SDS011;40873;47.522;19.106;2023-04-03T16:34:24;3.83;;;1.00;;
54977;SDS011;40873;47.522;19.106;2023-04-03T16:36:52;2.78;;;0.80;;
54977;SDS011;40873;47.522;19.106;2023-04-03T16:39:20;2.13;;;1.10;;
54977;SDS011;40873;47.522;19.106;2023-04-03T16:41:46;2.10;;;0.90;;
54977;SDS011;40873;47.522;19.106;2023-04-03T16:44:13;4.13;;;1.13;;
54977;SDS011;40873;47.522;19.106;2023-04-03T16:46:40;2.65;;;0.93;;
54977;SDS011;40873;47.522;19.106;2023-04-03T16:49:07;1.25;;;0.88;;
54977;SDS011;40873;47.522;19.106;2023-04-03T16:51:34;3.55;;;1.00;;
54977;SDS011;40873;47.522;19.106;2023-04-03T16:54:01;4.18;;;1.10;;
54977;SDS011;40873;47.522;19.106;2023-04-03T16:56:28;2.03;;;0.90;;